• Join FlightAware (Why Join?)
  • Login
  • US Flag 
09:51AM EDT


 

Airport Tracker/Info


-or-


 

Live Flight TrackerFlight Track Log ✈ TCF3463 ✈ 04-May-2012 ✈ KSLC - KORD

Flight Track Log - Related Links

Times and Time Zones

All times are in EDT time to prevent confusion due to time zone crossing. See the TCF3463 flight status page for this flight to view local times or setup timezone preferences in your user account.

Time Position Orientation Groundspeed Altitude Reporting Facility
EDT Latitude Longitude Course Direction KTS MPH feet Rate Location/Type
03:58PM 40.7970 -111.9412 334° Northwest  Level FlightAware Approximate
03:59PM 40.9042 -111.9833 182° South  Level FlightAware Approximate
04:00PM 40.8658 -111.9847 354° North 192 221 6,400  Level Salt Lake Center
04:01PM 40.9100 -111.9908 354° North 232 267 7,600 1,920 Climbing Salt Lake Center
04:02PM 40.9856 -112.0019 North 270 311 9,900 2,400 Climbing Salt Lake Center
04:03PM 41.0669 -111.9900 84° East 299 344 12,600 2,400 Climbing Salt Lake Center
04:04PM 41.0758 -111.8850 98° East 300 345 14,900 1,920 Climbing Salt Lake Center
04:05PM 41.0631 -111.7603 75° East 343 395 16,600 1,500 Climbing Salt Lake Center
04:06PM 41.0897 -111.6264 75° East 381 438 18,100 1,680 Climbing Salt Lake Center
04:07PM 41.1242 -111.4564 75° East 406 467 20,100 1,620 Climbing Salt Lake Center
04:09PM 41.1861 -111.1436 75° East 436 502 23,200 1,380 Climbing Salt Lake Center
04:10PM 41.2197 -110.9739 75° East 468 539 24,400 1,200 Climbing Salt Lake Center
04:11PM 41.2569 -110.7878 75° East 481 554 25,800 1,200 Climbing Salt Lake Center
04:12PM 41.2900 -110.6192 75° East 488 562 27,000 1,260 Climbing Salt Lake Center
04:13PM 41.3289 -110.4192 75° East 498 573 28,500 1,200 Climbing Salt Lake Center
04:14PM 41.3631 -110.2436 76° East 507 583 29,500 1,140 Climbing Salt Lake Center
04:15PM 41.4017 -110.0386 76° East 510 587 30,900 1,200 Climbing Salt Lake Center
04:16PM 41.4353 -109.8636 76° East 510 587 32,000 960 Climbing Salt Lake Center
04:17PM 41.4672 -109.6922 76° East 502 578 33,000 480 Climbing Salt Lake Center
04:18PM 41.5036 -109.4950 76° East 493 567 33,000  Level Salt Lake Center
04:19PM 41.5353 -109.3236 76° East 492 566 33,000  Level Salt Lake Center
04:20PM 41.5722 -109.1222 80° East 491 565 33,000  Level Salt Lake Center
04:21PM 41.5950 -108.9517 84° East 479 551 33,000  Level Salt Lake Center
04:22PM 41.6078 -108.7814 84° East 476 548 33,000  Level Salt Lake Center
04:23PM 41.6231 -108.5833 85° East 479 551 33,000  Level Salt Lake Center
04:24PM 41.6347 -108.4153 85° East 477 549 33,000  Level Salt Lake Center
04:25PM 41.6486 -108.2192 84° East 476 548 33,000  Level Salt Lake Center
04:27PM 41.6614 -108.0500 84° East 476 548 33,000  Level Salt Lake Center
04:28PM 41.6761 -107.8514 85° East 480 552 33,000  Level Salt Lake Center
04:29PM 41.6872 -107.6819 85° East 479 551 33,000  Level Salt Lake Center
04:30PM 41.6978 -107.5125 85° East 478 550 33,000  Level Salt Lake Center
04:31PM 41.7111 -107.3167 85° East 476 548 33,000  Level Salt Lake Center
04:32PM 41.7217 -107.1486 85° East 474 545 33,000  Level Salt Lake Center
04:33PM 41.7339 -106.9525 85° East 474 545 33,000  Level Salt Lake Center
04:34PM 41.7442 -106.7839 86° East 476 548 33,000  Level Salt Lake Center
04:35PM 41.7553 -106.5806 86° East 477 549 33,000  Level Salt Lake Center
04:36PM 41.7644 -106.4117 86° East 477 549 33,000  Level Salt Lake Center
04:37PM 41.7733 -106.2442 86° East 474 545 33,000  Level Salt Lake Center
04:38PM 41.7819 -106.0725 85° East 469 540 33,000  Level Denver Center
04:39PM 41.7958 -105.8608 87° East 464 534 33,000  Level Denver Center
04:40PM 41.8031 -105.6853 85° East 464 534 33,000  Level Denver Center
04:41PM 41.8122 -105.5292 87° East 469 540 33,000  Level Denver Center
04:42PM 41.8192 -105.3564 87° East 462 532 33,000  Level Denver Center
04:43PM 41.8275 -105.1667 86° East 462 532 33,000  Level Denver Center
04:44PM 41.8358 -104.9911 87° East 462 532 33,000  Level Denver Center
04:45PM 41.8419 -104.8292 87° East 468 539 33,000  Level Denver Center
04:46PM 41.8494 -104.6367 86° East 468 539 33,000  Level Denver Center
04:47PM 41.8572 -104.4636 86° East 468 539 33,000  Level Denver Center
04:48PM 41.8647 -104.2989 88° East 455 524 33,000  Level Denver Center
04:49PM 41.8678 -104.1453 87° East 455 524 33,000  Level Denver Center
04:50PM 41.8744 -103.9611 87° East 455 524 33,000  Level Denver Center
04:51PM 41.8811 -103.7964 87° East 455 524 33,000  Level Denver Center
04:52PM 41.8861 -103.6456 86° East 449 517 33,000  Level Denver Center
04:53PM 41.8942 -103.4778 80° East 444 511 33,000  Level Denver Center
04:54PM 41.9186 -103.2925 96° East 444 511 33,000  Level Denver Center
04:55PM 41.9056 -103.1283 96° East 444 511 33,000 120 Level Denver Center
04:56PM 41.8928 -102.9783 97° East 444 511 33,300 840 Climbing Denver Center
04:57PM 41.8747 -102.7953 97° East 444 511 34,700 840 Climbing Denver Center
04:58PM 41.8592 -102.6344 98° East 439 505 35,000 120 Climbing Denver Center
04:59PM 41.8433 -102.4764 96° East 439 505 35,000  Level Denver Center
05:00PM 41.8319 -102.3322 97° East 439 505 35,000  Level Denver Center
05:01PM 41.8175 -102.1658 97° East 439 505 35,000  Level Denver Center
05:02PM 41.8006 -101.9914 96° East 439 505 35,000  Level Denver Center
05:03PM 41.7881 -101.8281 96° East 439 505 35,000  Level Denver Center
05:04PM 41.7758 -101.6842 96° East 439 505 35,000  Level Denver Center
05:05PM 41.7628 -101.5208 95° East 439 505 35,000  Level Denver Center
05:06PM 41.7508 -101.3433 97° East 439 505 35,000  Level Denver Center
05:08PM 41.7219 -101.0311 96° East 444 511 35,000  Level Denver Center
05:09PM 41.7081 -100.8681 96° East 444 511 35,000  Level Denver Center
05:10PM 41.6928 -100.6886 93° East 444 511 35,000  Level Denver Center
05:11PM 41.6869 -100.5306 92° East 439 505 35,000  Level Denver Center
05:12PM 41.6831 -100.3750 92° East 433 498 35,000  Level Denver Center
05:13PM 41.6794 -100.2306 86° East 433 498 35,000  Level Denver Center
05:14PM 41.6886 -100.0544 87° East 428 493 35,000  Level Denver Center
05:15PM 41.6944 -99.8953 82° East 428 493 35,000  Level Denver Center
05:16PM 41.7103 -99.7378 77° East 428 493 35,000  Level Denver Center
05:18PM 41.7628 -99.4275 71° East 427 491 35,000  Level Minneapolis Center
05:19PM 41.8053 -99.2589 72° East 427 491 35,000  Level Minneapolis Center
05:20PM 41.8425 -99.1036 71° East 432 497 35,000  Level Minneapolis Center
05:21PM 41.8817 -98.9483 74° East 432 497 35,000  Level Minneapolis Center
05:22PM 41.9144 -98.7922 82° East 432 497 35,000  Level Minneapolis Center
05:23PM 41.9306 -98.6319 83° East 432 497 35,000  Level Minneapolis Center
05:24PM 41.9439 -98.4769 83° East 432 497 35,000  Level Minneapolis Center
05:25PM 41.9597 -98.3136 83° East 425 489 35,000  Level Minneapolis Center
05:26PM 41.9714 -98.1861 85° East 425 489 35,000  Level Minneapolis Center
05:27PM 41.9831 -98.0139 84° East 425 489 35,000  Level Minneapolis Center
05:28PM 41.9956 -97.8558 83° East 425 489 35,000  Level Minneapolis Center
05:29PM 42.0103 -97.7006 83° East 420 483 35,000  Level Minneapolis Center
05:30PM 42.0247 -97.5394 83° East 420 483 35,000  Level Minneapolis Center
05:31PM 42.0386 -97.3811 84° East 420 483 35,000  Level Minneapolis Center
05:32PM 42.0506 -97.2256 83° East 420 483 35,000  Level Minneapolis Center
05:33PM 42.0642 -97.0644 85° East 420 483 35,000  Level Minneapolis Center
05:34PM 42.0756 -96.9031 84° East 420 483 35,000  Level Minneapolis Center
05:35PM 42.0889 -96.7417 84° East 420 483 35,000  Level Minneapolis Center
05:36PM 42.1019 -96.5858 83° East 420 483 35,000  Level Minneapolis Center
05:37PM 42.1167 -96.4272 84° East 425 489 35,000  Level Minneapolis Center
05:38PM 42.1294 -96.2656 84° East 425 489 35,000  Level Minneapolis Center
05:39PM 42.1414 -96.1094 85° East 419 482 35,000  Level Minneapolis Center
05:40PM 42.1517 -95.9478 85° East 424 488 35,000  Level Minneapolis Center
05:41PM 42.1614 -95.7886 84° East 424 488 35,000  Level Minneapolis Center
05:42PM 42.1728 -95.6325 84° East 424 488 35,000  Level Minneapolis Center
05:43PM 42.1842 -95.4733 84° East 424 488 35,000  Level Minneapolis Center
05:44PM 42.1956 -95.3142 86° East 424 488 35,000  Level Minneapolis Center
05:45PM 42.2042 -95.1547 85° East 424 488 35,000  Level Minneapolis Center
05:46PM 42.2150 -94.9956 86° East 424 488 35,000  Level Minneapolis Center
05:47PM 42.2233 -94.8389 85° East 424 488 35,000  Level Minneapolis Center
05:48PM 42.2336 -94.6683 84° East 424 488 35,000  Level Minneapolis Center
05:49PM 42.2458 -94.5061 85° East 424 488 35,000  Level Minneapolis Center
05:50PM 42.2556 -94.3494 89° East 424 488 35,000  Level Minneapolis Center
05:51PM 42.2567 -94.1981 84° East 431 496 35,000  Level Minneapolis Center
05:52PM 42.2681 -94.0386 86° East 431 496 35,000  Level Minneapolis Center
05:54PM 42.2825 -93.7117 87° East 436 502 35,000  Level Chicago Center
05:55PM 42.2886 -93.5467 85° East 436 502 35,000  Level Chicago Center
05:56PM 42.2986 -93.3872 87° East 436 502 35,000  Level Chicago Center
05:57PM 42.3042 -93.2244 84° East 436 502 35,000  Level Chicago Center
05:58PM 42.3158 -93.0625 88° East 436 502 35,000  Level Chicago Center
05:59PM 42.3208 -92.9025 86° East 431 496 35,000  Level Chicago Center
06:00PM 42.3297 -92.7400 87° East 431 496 35,000  Level Chicago Center
06:01PM 42.3369 -92.5636 86° East 431 496 35,000  Level Chicago Center
06:02PM 42.3456 -92.4008 88° East 426 490 35,000  Level Chicago Center
06:03PM 42.3497 -92.2408 87° East 426 490 35,000  Level Chicago Center
06:04PM 42.3556 -92.0811 86° East 426 490 35,000 -420 Level Chicago Center
06:05PM 42.3636 -91.9211 87° East 421 484 34,200 -780 Descending Chicago Center
06:07PM 42.3764 -91.6014 88° East 421 484 32,800 -780 Descending Chicago Center
06:08PM 42.3794 -91.4411 86° East 421 484 32,000 -780 Descending Chicago Center
06:09PM 42.3864 -91.2867 84° East 430 495 31,300 -900 Descending Chicago Center
06:10PM 42.3994 -91.1183 82° East 440 506 30,300 -1,020 Descending Chicago Center
06:11PM 42.4164 -90.9503 84° East 447 514 29,300 -660 Descending Chicago Center
06:12PM 42.4292 -90.7789 83° East 452 520 29,000 -300 Descending Chicago Center
06:13PM 42.4458 -90.6019 84° East 459 528 28,800 -600 Descending Chicago Center
06:14PM 42.4600 -90.4278 85° East 464 534 27,800 -1,020 Descending Chicago Center
06:15PM 42.4719 -90.2564 83° East 464 534 26,800 -1,020 Descending Chicago Center
06:16PM 42.4878 -90.0819 84° East 464 534 25,800 -1,020 Descending Chicago Center
06:17PM 42.5011 -89.9186 87° East 454 522 24,800 -900 Descending Chicago Center
06:18PM 42.5083 -89.7525 84° East 442 509 24,000 -1,620 Descending Chicago Center
06:19PM 42.5211 -89.5922 84° East 442 509 21,600 -2,460 Descending Chicago Center
06:20PM 42.5339 -89.4344 85° East 437 503 19,100 -2,460 Descending Chicago Center
06:21PM 42.5442 -89.2822 85° East 413 475 16,700 -2,400 Descending Chicago Center
06:22PM 42.5544 -89.1356 106° East 395 455 14,400 -1,380 Descending Chicago Center
06:23PM 42.5250 -88.9978 111° Southeast 370 426 14,000 -600 Descending Chicago Center
06:24PM 42.4850 -88.8600 113° Southeast 375 432 13,200 -1,440 Descending Chicago Center
06:25PM 42.4511 -88.7533 112° Southeast 333 383 11,200 -2,100 Descending Chicago Center
06:26PM 42.4192 -88.6439 112° Southeast 308 354 9,000 -1,140 Descending Chicago Center
06:27PM 42.3894 -88.5458 138° Southeast 295 339 9,000  Level Chicago Center
06:28PM 42.3325 -88.4764 172° South 258 297 9,000  Level Chicago Center
06:29PM 42.2617 -88.4633 166° South 285 328 9,000 -600 Level Chicago Center
06:30PM 42.2072 -88.4444 172° South 245 282 7,900 -1,020 Descending Chicago Center
06:31PM 42.1531 -88.4339 176° South 214 246 7,000 -480 Descending Chicago Center
06:32PM 42.0986 -88.4292 198° South 202 232 7,000  Level Chicago Center
06:33PM 42.0469 -88.4522 188° South 197 227 7,000  Level Chicago Center
06:34PM 41.9969 -88.4614 110° East 197 227 7,000 -120 Level Chicago Center
06:36PM 41.9667 -88.3500 90° East 179 206 6,800 -540 Descending Chicago TRACON
06:37PM 41.9667 -88.2833 90° East 169 194 5,600 -960 Descending Chicago TRACON
06:38PM 41.9667 -88.2333 90° East 164 189 4,900 -840 Descending Chicago TRACON
06:39PM 41.9667 -88.1667 90° East 162 186 4,100 -900 Descending Chicago TRACON
06:40PM 41.9667 -88.1167 90° East 154 177 3,200 -840 Descending Chicago TRACON
06:41PM 41.9667 -88.0500 90° East 148 170 2,500 -840 Descending Chicago TRACON
06:42PM 41.9667 -88.0000 90° East 145 167 1,600 -900 Descending Chicago TRACON